createdAt,value
2023-05-14T00:01:16.957Z,102000.03
2023-05-14T00:06:18.651Z,101991.00
2023-05-14T00:11:20.962Z,101982.22
2023-05-14T00:16:22.653Z,101977.91
2023-05-14T00:21:24.249Z,101978.63
2023-05-14T00:26:25.938Z,101971.38
2023-05-14T00:31:27.630Z,101964.84
2023-05-14T00:36:29.301Z,101962.09
2023-05-14T00:41:31.114Z,101962.59
2023-05-14T00:46:32.818Z,101954.34
2023-05-14T00:51:34.632Z,101959.75
2023-05-14T00:56:36.413Z,101957.19
2023-05-14T01:01:38.229Z,101948.34
2023-05-14T01:06:45.246Z,101936.25
2023-05-14T01:12:00.968Z,101933.47
2023-05-14T01:17:04.729Z,101929.50
2023-05-14T01:22:06.880Z,101925.88
2023-05-14T01:27:34.559Z,101918.28
2023-05-14T01:32:38.030Z,101923.44
2023-05-14T01:37:41.839Z,101925.56
2023-05-14T01:42:47.508Z,101928.50
2023-05-14T01:47:49.945Z,101928.19
2023-05-14T01:52:56.748Z,101925.78
2023-05-14T01:57:58.688Z,101918.00
2023-05-14T02:03:00.509Z,101923.41
2023-05-14T02:08:02.214Z,101924.25
2023-05-14T02:13:04.133Z,101911.41
2023-05-14T02:18:05.958Z,101909.91
2023-05-14T02:23:07.718Z,101902.13
2023-05-14T02:28:09.329Z,101891.41
2023-05-14T02:33:11.019Z,101894.16
2023-05-14T02:38:12.686Z,101898.00
2023-05-14T02:43:15.804Z,101888.13
2023-05-14T02:48:17.434Z,101880.69
2023-05-14T02:53:19.109Z,101878.28
2023-05-14T02:58:20.786Z,101876.56
2023-05-14T03:03:33.637Z,101879.66
2023-05-14T03:08:35.825Z,101877.41
2023-05-14T03:13:37.459Z,101885.56
2023-05-14T03:18:39.413Z,101883.13
2023-05-14T03:23:43.078Z,101870.84
2023-05-14T03:28:48.594Z,101876.22
2023-05-14T03:33:50.286Z,101872.41
2023-05-14T03:38:51.918Z,101868.28
2023-05-14T03:43:53.570Z,101865.16
2023-05-14T03:48:55.225Z,101873.13
2023-05-14T03:53:58.201Z,101875.00
2023-05-14T03:58:59.822Z,101862.06
2023-05-14T04:04:01.572Z,101854.97
2023-05-14T04:09:03.741Z,101861.69
2023-05-14T04:14:05.628Z,101862.75
2023-05-14T04:19:07.393Z,101862.41
2023-05-14T04:24:09.213Z,101863.44
2023-05-14T04:29:10.876Z,101868.97
2023-05-14T04:34:12.497Z,101878.81
2023-05-14T04:39:16.348Z,101881.38
2023-05-14T04:44:17.935Z,101874.13
2023-05-14T04:49:20.888Z,101872.22
2023-05-14T04:54:22.746Z,101875.69
2023-05-14T04:59:24.376Z,101873.63
2023-05-14T05:04:26.426Z,101865.31
2023-05-14T05:09:30.405Z,101864.78
2023-05-14T05:14:32.109Z,101891.41
2023-05-14T05:19:43.237Z,101879.50
2023-05-14T05:24:50.108Z,101884.66
2023-05-14T05:29:51.870Z,101889.88
2023-05-14T05:34:53.558Z,101887.25
2023-05-14T05:39:57.381Z,101890.91
2023-05-14T05:44:59.055Z,101897.78
2023-05-14T05:50:00.661Z,101896.19
2023-05-14T05:55:02.318Z,101895.06
2023-05-14T06:00:13.396Z,101894.81
2023-05-14T06:05:16.854Z,101893.09
2023-05-14T06:10:19.078Z,101900.03
2023-05-14T06:15:20.910Z,101888.28
2023-05-14T06:20:22.981Z,101884.78
2023-05-14T06:25:24.856Z,101889.09
2023-05-14T06:30:26.643Z,101894.47
2023-05-14T06:35:28.486Z,101901.56
2023-05-14T06:40:30.296Z,101900.16
2023-05-14T06:45:33.306Z,101895.13
2023-05-14T06:50:35.044Z,101900.47
2023-05-14T06:55:36.779Z,101895.75
2023-05-14T07:00:38.409Z,101893.69
2023-05-14T07:05:41.307Z,101892.94
2023-05-14T07:10:42.933Z,101895.31
2023-05-14T07:15:44.942Z,101896.28
2023-05-14T07:20:47.753Z,101902.75
2023-05-14T07:25:49.491Z,101891.03
2023-05-14T07:30:51.098Z,101883.25
2023-05-14T07:35:54.107Z,101886.22
2023-05-14T07:40:56.233Z,101887.88
2023-05-14T07:46:00.203Z,101883.09
2023-05-14T07:51:03.721Z,101886.63
2023-05-14T07:56:05.989Z,101879.44
2023-05-14T08:01:09.194Z,101878.66
2023-05-14T08:06:10.893Z,101883.66
2023-05-14T08:11:12.662Z,101870.22
2023-05-14T08:16:14.360Z,101867.19
2023-05-14T08:21:17.914Z,101881.41
2023-05-14T08:26:19.557Z,101883.50
2023-05-14T08:31:21.290Z,101868.09
2023-05-14T08:36:22.932Z,101863.91
2023-05-14T08:41:25.535Z,101853.34
2023-05-14T08:46:30.614Z,101853.50
2023-05-14T08:51:33.519Z,101831.13
2023-05-14T08:56:35.989Z,101829.09
2023-05-14T09:01:39.729Z,101827.03
2023-05-14T09:06:43.516Z,101824.44
2023-05-14T09:11:52.646Z,101827.28
2023-05-14T09:16:54.851Z,101824.50
2023-05-14T09:21:59.220Z,101824.75
2023-05-14T09:27:09.164Z,101817.94
2023-05-14T09:32:11.305Z,101810.44
2023-05-14T09:37:13.798Z,101814.09
2023-05-14T09:42:16.520Z,101815.44
2023-05-14T09:47:18.360Z,101804.03
2023-05-14T09:52:20.304Z,101812.34
2023-05-14T09:57:22.092Z,101806.34
2023-05-14T10:02:36.230Z,101805.91
2023-05-14T10:07:48.135Z,101802.63
2023-05-14T10:13:06.799Z,101795.94
2023-05-14T10:18:18.218Z,101788.66
2023-05-14T10:23:21.732Z,101788.06
2023-05-14T10:28:23.610Z,101784.00
2023-05-14T10:33:25.251Z,101777.09
2023-05-14T10:38:29.133Z,101778.75
2023-05-14T10:43:36.347Z,101775.72
2023-05-14T10:48:41.870Z,101766.66
2023-05-14T10:53:46.354Z,101759.47
2023-05-14T10:58:50.029Z,101759.97
2023-05-14T11:03:53.392Z,101749.66
2023-05-14T11:08:55.492Z,101753.88
2023-05-14T11:13:57.454Z,101753.34
2023-05-14T11:19:04.212Z,101741.53
2023-05-14T11:24:07.461Z,101739.97
2023-05-14T11:29:10.504Z,101726.97
2023-05-14T11:34:12.259Z,101726.50
2023-05-14T11:39:19.713Z,101721.13
2023-05-14T11:44:22.381Z,101726.72
2023-05-14T11:49:26.911Z,101707.28
2023-05-14T11:54:29.966Z,101704.84
2023-05-14T11:59:32.630Z,101717.47
2023-05-14T12:04:34.458Z,101711.16
2023-05-14T12:09:43.013Z,101716.69
2023-05-14T12:14:47.197Z,101707.22
2023-05-14T12:19:51.178Z,101702.69
2023-05-14T12:24:59.797Z,101706.34
2023-05-14T12:30:20.548Z,101710.22
2023-05-14T12:35:23.381Z,101697.91
2023-05-14T12:40:25.513Z,101699.25
2023-05-14T12:45:27.437Z,101678.72
2023-05-14T12:50:29.445Z,101677.66
2023-05-14T12:55:34.518Z,101677.34
2023-05-14T13:00:36.324Z,101687.78
2023-05-14T13:05:38.005Z,101692.66
2023-05-14T13:10:39.595Z,101687.75
2023-05-14T13:15:41.457Z,101694.22
2023-05-14T13:20:43.396Z,101702.03
2023-05-14T13:25:49.177Z,101701.75
2023-05-14T13:31:11.104Z,101701.81
2023-05-14T13:36:16.917Z,101700.97
2023-05-14T13:41:18.682Z,101695.03
2023-05-14T13:46:20.426Z,101698.03
2023-05-14T13:51:25.239Z,101687.84
2023-05-14T13:56:26.881Z,101690.50
2023-05-14T14:01:30.760Z,101696.09
2023-05-14T14:06:33.254Z,101687.56
2023-05-14T14:11:34.990Z,101681.59
2023-05-14T14:16:36.695Z,101684.75
2023-05-14T14:21:39.796Z,101677.88
2023-05-14T14:26:44.000Z,101664.91
2023-05-14T14:31:47.428Z,101678.19
2023-05-14T14:36:49.072Z,101670.72
2023-05-14T14:41:51.391Z,101677.41
2023-05-14T14:46:52.950Z,101676.97
2023-05-14T14:51:54.792Z,101667.09
2023-05-14T14:56:57.460Z,101664.25
2023-05-14T15:01:59.129Z,101661.34
2023-05-14T15:07:01.603Z,101667.13
2023-05-14T15:12:03.326Z,101663.63
2023-05-14T15:17:05.164Z,101666.81
2023-05-14T15:22:06.973Z,101672.03
2023-05-14T15:27:08.592Z,101654.16
2023-05-14T15:32:10.407Z,101659.94
2023-05-14T15:37:12.105Z,101661.81
2023-05-14T15:42:13.801Z,101657.75
2023-05-14T15:47:16.691Z,101653.53
2023-05-14T15:52:18.434Z,101653.28
2023-05-14T15:57:20.269Z,101655.75
2023-05-14T16:02:21.859Z,101653.41
2023-05-14T16:07:23.498Z,101645.88
2023-05-14T16:12:25.100Z,101672.28
2023-05-14T16:17:28.178Z,101664.38
2023-05-14T16:22:31.934Z,101664.50
2023-05-14T16:27:34.286Z,101655.59
2023-05-14T16:32:36.563Z,101649.09
2023-05-14T16:37:38.170Z,101653.84
2023-05-14T16:42:39.842Z,101658.94
2023-05-14T16:47:41.627Z,101652.56
2023-05-14T16:52:43.344Z,101653.16
2023-05-14T16:57:46.538Z,101659.03
2023-05-14T17:02:49.840Z,101657.84
2023-05-14T17:07:52.139Z,101656.84
2023-05-14T17:12:53.839Z,101647.53
2023-05-14T17:17:55.629Z,101642.13
2023-05-14T17:22:57.235Z,101628.47
2023-05-14T17:27:59.101Z,101630.88
2023-05-14T17:33:00.868Z,101634.94
2023-05-14T17:38:04.239Z,101628.47
2023-05-14T17:43:05.905Z,101634.31
2023-05-14T17:48:07.677Z,101627.56
2023-05-14T17:53:09.415Z,101628.38
2023-05-14T17:58:16.506Z,101629.91
2023-05-14T18:03:20.410Z,101625.69
2023-05-14T18:08:22.346Z,101631.53
2023-05-14T18:13:24.032Z,101639.19
2023-05-14T18:18:25.924Z,101634.09
2023-05-14T18:23:27.600Z,101631.44
2023-05-14T18:28:29.332Z,101633.81
2023-05-14T18:33:33.129Z,101638.97
2023-05-14T18:38:35.414Z,101650.53
2023-05-14T18:43:37.049Z,101649.66
2023-05-14T18:48:38.651Z,101643.06
2023-05-14T18:53:40.291Z,101646.16
2023-05-14T18:58:42.116Z,101652.88
2023-05-14T19:03:46.192Z,101637.44
2023-05-14T19:08:47.953Z,101636.84
2023-05-14T19:13:49.620Z,101632.88
2023-05-14T19:18:51.369Z,101633.06
2023-05-14T19:23:53.175Z,101623.13
2023-05-14T19:28:58.513Z,101620.28
2023-05-14T19:34:00.651Z,101616.25
2023-05-14T19:39:02.463Z,101620.22
2023-05-14T19:44:04.159Z,101632.34
2023-05-14T19:49:05.838Z,101625.88
2023-05-14T19:54:07.482Z,101628.84
2023-05-14T19:59:09.202Z,101636.09
2023-05-14T20:04:10.839Z,101625.22
2023-05-14T20:09:13.714Z,101634.50
2023-05-14T20:14:16.638Z,101629.28
2023-05-14T20:19:22.037Z,101639.72
2023-05-14T20:24:23.913Z,101623.09
2023-05-14T20:29:25.765Z,101607.22
2023-05-14T20:34:27.411Z,101608.28
2023-05-14T20:39:29.013Z,101613.44
2023-05-14T20:44:30.706Z,101618.00
2023-05-14T20:49:32.360Z,101610.13
2023-05-14T20:54:34.733Z,101614.97
2023-05-14T20:59:36.366Z,101612.22
2023-05-14T21:04:38.268Z,101612.22
2023-05-14T21:09:39.969Z,101612.22
2023-05-14T21:14:42.067Z,101601.53
2023-05-14T21:19:43.765Z,101606.38
2023-05-14T21:24:46.577Z,101594.66
2023-05-14T21:29:48.216Z,101592.97
2023-05-14T21:34:49.868Z,101596.59
2023-05-14T21:39:51.553Z,101602.13
2023-05-14T21:44:53.162Z,101609.56
2023-05-14T21:49:54.800Z,101604.38
2023-05-14T21:54:56.583Z,101595.97
2023-05-14T22:00:07.966Z,101602.78
2023-05-14T22:05:09.781Z,101592.28
2023-05-14T22:10:16.578Z,101588.72
2023-05-14T22:15:18.198Z,101574.03
2023-05-14T22:20:19.842Z,101582.00
2023-05-14T22:25:21.453Z,101565.41
2023-05-14T22:30:24.030Z,101568.22
2023-05-14T22:35:25.811Z,101560.09
2023-05-14T22:40:27.731Z,101567.16
2023-05-14T22:45:29.402Z,101566.97
2023-05-14T22:50:31.035Z,101555.63
2023-05-14T22:55:35.638Z,101541.47
2023-05-14T23:00:37.427Z,101538.72
2023-05-14T23:05:39.136Z,101536.66
2023-05-14T23:10:40.775Z,101543.44
2023-05-14T23:15:44.112Z,101541.03
2023-05-14T23:20:48.281Z,101536.72
2023-05-14T23:25:50.683Z,101532.38
2023-05-14T23:30:52.304Z,101529.13
2023-05-14T23:35:53.998Z,101533.97
2023-05-14T23:40:55.683Z,101516.03
2023-05-14T23:45:57.580Z,101506.19
2023-05-14T23:50:59.278Z,101505.34
2023-05-14T23:56:00.991Z,101495.91
